Data for 05/29/2014

Time Sea-Level Adjusted Pressure Absolute Pressure Temperature Relative Humidity Dew Point   
(mb) (inHg) (mb) (inHg) (C) (F) (%) (C) (F)
00:05 1015 29.97 844 24.92 14.7 58.4 56 6 42.8
00:10 1015 29.97 845 24.95 14.6 58.2 56 5.8 42.5
00:15 1016 30 845 24.95 14.4 57.9 56 5.9 42.6
00:20 1016 30 845 24.95 14.3 57.7 56 5.8 42.5
00:25 1016 30 846 24.98 14.1 57.4 57 5.8 42.4
00:30 1017 30.03 846 24.98 14 57.3 57 5.6 42.2
00:35 1016 30 845 24.95 14.1 57.3 56 5.5 41.9
00:40 1016 30 846 24.98 14.1 57.3 56 5.4 41.7
00:45 1017 30.03 846 24.98 14.1 57.3 56 5.5 41.8
00:50 1016 30 845 24.95 14 57.3 55 5.2 41.4
00:55 1016 30 845 24.95 14 57.2 56 5.4 41.7
01:00 1016 30 845 24.95 14 57.1 56 5.4 41.7
01:05 1016 30 846 24.98 13.8 56.8 57 5.4 41.7
01:10 1017 30.03 846 24.98 13.5 56.3 57 5.3 41.5
01:15 1017 30.03 846 24.98 13.4 56.2 58 5.4 41.6
01:20 1017 30.03 846 24.98 13.3 55.9 58 5.3 41.6
01:25 1017 30.03 846 24.98 13.1 55.6 59 5.3 41.6
01:30 1017 30.03 846 24.98 13.1 55.5 59 5.3 41.5
01:35 1016 30 846 24.98 13 55.4 60 5.4 41.7
01:40 1016 30 846 24.98 12.9 55.2 60 5.4 41.8
01:45 1016 30 846 24.98 12.7 54.9 61 5.4 41.8
01:50 1017 30.03 846 24.98 12.6 54.6 62 5.5 41.8
01:55 1017 30.03 846 24.98 12.4 54.3 63 5.5 42
02:00 1017 30.03 846 24.98 12.4 54.3 62 5.4 41.6
02:05 1017 30.03 846 24.98 12.4 54.4 62 5.4 41.7
02:10 1017 30.03 846 24.98 12.5 54.4 61 5.3 41.6
02:15 1017 30.03 846 24.98 12.6 54.7 61 5.3 41.5
02:20 1017 30.03 846 24.98 12.7 54.8 61 5.4 41.7
02:25 1017 30.03 846 24.98 12.5 54.6 61 5.3 41.6
02:30 1017 30.03 846 24.98 12.2 54 59 4.6 40.3
02:35 1017 30.03 846 24.98 11.9 53.4 59 4.1 39.4
02:40 1017 30.03 846 24.98 11.6 52.8 58 3.7 38.6
02:45 1017 30.03 846 24.98 11.3 52.4 58 3.4 38.1
02:50 1017 30.03 846 24.98 11.1 52 58 3.1 37.6
02:55 1017 30.03 847 25.01 11 51.9 57 2.9 37.2
03:00 1017 30.03 847 25.01 10.9 51.6 56 2.6 36.7
03:05 1017 30.03 847 25.01 10.7 51.3 56 2.3 36.1
03:10 1017 30.03 847 25.01 10.5 50.9 57 2.3 36.2
03:15 1018 30.06 847 25.01 10.4 50.6 57 2.2 36
03:20 1018 30.06 847 25.01 10.1 50.2 59 2.4 36.4
03:25 1018 30.06 847 25.01 9.9 49.7 59 2.2 35.9
03:30 1018 30.06 847 25.01 9.7 49.5 58 2 35.6
03:35 1018 30.06 847 25.01 9.6 49.3 59 2 35.6
03:40 1018 30.06 847 25.01 9.6 49.3 59 2 35.5
03:45 1018 30.06 847 25.01 9.6 49.2 59 2 35.5
03:50 1018 30.06 847 25.01 9.6 49.3 58 1.9 35.4
03:55 1018 30.06 847 25.01 9.6 49.4 57 1.6 35
04:00 1018 30.06 847 25.01 9.7 49.5 58 1.9 35.4
04:05 1018 30.06 847 25.01 9.6 49.3 58 1.7 35.1
04:10 1018 30.06 847 25.01 9.6 49.2 58 1.8 35.2
04:15 1018 30.06 847 25.01 9.6 49.2 58 1.7 35.1
04:20 1018 30.06 847 25.01 9.5 49.1 58 1.7 35
04:25 1018 30.06 847 25.01 9.6 49.2 57 1.6 34.9
04:30 1018 30.06 848 25.04 9.5 49.1 58 1.6 34.9
04:35 1018 30.06 848 25.04 9.4 48.9 57 1.4 34.6
04:40 1019 30.09 848 25.04 9.4 48.9 57 1.4 34.5
04:45 1019 30.09 848 25.04 9.5 49 57 1.4 34.5
04:50 1019 30.09 848 25.04 9.5 49 56 1.3 34.3
04:55 1019 30.09 848 25.04 9.5 49 56 1 33.9
05:00 1019 30.09 848 25.04 9.4 49 55 0.9 33.6
05:05 1019 30.09 848 25.04 9.5 49 54 0.6 33.1
05:10 1019 30.09 848 25.04 9.3 48.8 55 0.7 33.3
05:15 1019 30.09 848 25.04 9.3 48.8 55 0.8 33.4
05:20 1019 30.09 848 25.04 9.3 48.7 55 0.7 33.2
05:25 1019 30.09 848 25.04 9.3 48.7 55 0.8 33.4
05:30 1019 30.09 848 25.04 9.3 48.7 55 0.7 33.3
05:35 1019 30.09 848 25.04 9.3 48.7 55 0.7 33.3
05:40 1019 30.09 848 25.04 9.2 48.6 55 0.7 33.3
05:45 1019 30.09 848 25.04 9.2 48.6 55 0.6 33.1
05:50 1019 30.09 848 25.04 9.3 48.8 54 0.6 33.1
05:55 1019 30.09 849 25.07 9.4 48.8 54 0.6 33.1
06:00 1019 30.09 848 25.04 9.3 48.8 54 0.5 32.9
06:05 1019 30.09 848 25.04 9.4 48.9 54 0.5 32.9
06:10 1019 30.09 849 25.07 9.5 49 53 0.3 32.5
06:15 1019 30.09 849 25.07 9.6 49.3 53 0.5 32.9
06:20 1019 30.09 849 25.07 9.6 49.2 53 0.5 32.9
06:25 1019 30.09 849 25.07 9.3 48.8 53 0.2 32.4
06:30 1020 30.12 849 25.07 9.3 48.7 54 0.4 32.7
06:35 1020 30.12 849 25.07 9.2 48.6 54 0.5 33
06:40 1020 30.12 849 25.07 9.1 48.3 54 0.2 32.4
06:45 1020 30.12 849 25.07 9.1 48.4 53 0.1 32.1
06:50 1020 30.12 849 25.07 9.1 48.5 54 0.4 32.7
06:55 1020 30.12 849 25.07 9.4 48.8 53 0.3 32.6
07:00 1020 30.12 849 25.07 9.5 49.1 53 0.4 32.7
07:05 1020 30.12 849 25.07 9.7 49.4 52 0.5 32.9
07:10 1020 30.12 849 25.07 9.9 49.7 51 0.2 32.4
07:15 1020 30.12 849 25.07 9.9 49.9 50 0.1 32.1
07:20 1020 30.12 849 25.07 9.9 49.8 50 0.1 32.2
07:25 1020 30.12 849 25.07 9.9 49.9 51 0.3 32.5
07:30 1020 30.12 849 25.07 10 49.9 50 0.1 32.2
07:35 1020 30.12 849 25.07 10 50 50 0.2 32.3
07:40 1020 30.12 849 25.07 10 50 49 -0.1 31.9
07:45 1020 30.12 849 25.07 10 49.9 49 -0.3 31.5
07:50 1020 30.12 849 25.07 10 49.9 49 -0.1 31.8
07:55 1020 30.12 850 25.1 10 50.1 49 -0.2 31.6
08:00 1020 30.12 850 25.1 10 50 49 -0.1 31.8
08:05 1020 30.12 850 25.1 10 50.1 48 -0.3 31.4
08:10 1020 30.12 850 25.1 10.3 50.5 46 -0.8 30.6
08:15 1020 30.12 850 25.1 10.4 50.6 46 -0.7 30.7
08:20 1020 30.12 850 25.1 10.6 51.1 46 -0.6 30.9
08:25 1020 30.12 850 25.1 10.6 51.1 45 -0.9 30.5
08:30 1021 30.15 850 25.1 10.7 51.2 45 -0.6 30.9
08:35 1021 30.15 850 25.1 10.8 51.4 45 -0.5 31.1
08:40 1021 30.15 850 25.1 10.7 51.3 45 -0.8 30.5
08:45 1021 30.15 850 25.1 10.8 51.4 44 -0.9 30.3
08:50 1021 30.15 850 25.1 10.8 51.4 44 -0.9 30.4
08:55 1021 30.15 850 25.1 10.7 51.3 44 -1.1 30.1
09:00 1021 30.15 850 25.1 10.9 51.7 44 -0.8 30.6
09:05 1021 30.15 850 25.1 11.1 51.9 44 -0.6 30.9
09:10 1021 30.15 850 25.1 11.2 52.1 42 -1.1 30.1
09:15 1021 30.15 850 25.1 11.3 52.3 43 -0.9 30.4
09:20 1021 30.15 850 25.1 11.1 52 43 -1 30.1
09:25 1021 30.15 850 25.1 11.1 52 43 -1 30.2
09:30 1021 30.15 850 25.1 11.3 52.4 42 -1.2 29.9
09:35 1021 30.15 850 25.1 11.5 52.8 41 -1.3 29.6
09:40 1021 30.15 850 25.1 11.4 52.6 41 -1.2 29.9
09:45 1021 30.15 850 25.1 11.5 52.7 41 -1.1 30
09:50 1021 30.15 850 25.1 11.6 52.8 42 -0.8 30.5
09:55 1021 30.15 850 25.1 11.8 53.2 41 -1 30.2
10:00 1021 30.15 850 25.1 11.9 53.5 41 -0.8 30.6
10:05 1021 30.15 850 25.1 11.8 53.2 41 -0.9 30.4
10:10 1021 30.15 850 25.1 12 53.7 40 -0.9 30.3
10:15 1021 30.15 850 25.1 12.1 53.8 40 -1 30.1
10:20 1021 30.15 850 25.1 12.1 53.9 40 -0.9 30.4
10:25 1021 30.15 850 25.1 12.7 54.8 39 -0.7 30.7
10:30 1021 30.15 850 25.1 12.5 54.4 41 -0.3 31.5
10:35 1021 30.15 850 25.1 12.4 54.2 39 -1.1 30.1
10:40 1021 30.15 850 25.1 12.4 54.3 40 -0.8 30.5
10:45 1021 30.15 850 25.1 12.4 54.2 39 -1.1 30
10:50 1021 30.15 850 25.1 12.5 54.5 38 -1.4 29.4
10:55 1021 30.15 850 25.1 12.8 55 38 -1.2 29.9
11:00 1021 30.15 850 25.1 13.4 56.1 36 -1.3 29.6
11:05 1021 30.15 850 25.1 13.8 56.8 35 -1.5 29.3
11:10 1021 30.15 850 25.1 13.4 56.1 35 -1.8 28.8
11:15 1021 30.15 850 25.1 13.4 56.2 36 -1.2 29.8
11:20 1021 30.15 850 25.1 13.6 56.5 34 -1.7 28.9
11:25 1021 30.15 850 25.1 14.8 58.6 33 -1.2 29.8
11:30 1021 30.15 850 25.1 15.3 59.6 33 -0.8 30.5
11:35 1021 30.15 850 25.1 15.1 59.2 32 -1.2 29.9
11:40 1021 30.15 850 25.1 15.2 59.4 33 -0.9 30.4
11:45 1021 30.15 850 25.1 15.6 60 31 -1.6 29.2
11:50 1021 30.15 850 25.1 15.6 60 32 -1 30.3
11:55 1021 30.15 850 25.1 15.3 59.5 32 -1.1 30
12:00 1021 30.15 850 25.1 15.1 59.1 32 -1.6 29.1
12:05 1021 30.15 850 25.1 14.2 57.5 34 -1.4 29.6
12:10 1021 30.15 850 25.1 14.8 58.6 32 -1.7 29
12:15 1021 30.15 850 25.1 15.7 60.3 32 -0.9 30.3
12:20 1021 30.15 850 25.1 15.9 60.5 33 -0.2 31.7
12:25 1021 30.15 850 25.1 14.3 57.7 34 -1.4 29.5
12:30 1021 30.15 850 25.1 15.1 59.2 31 -2 28.4
12:35 1021 30.15 850 25.1 16.1 61.1 30 -1.2 29.9
12:40 1021 30.15 850 25.1 15.5 59.9 33 -0.8 30.6
12:45 1021 30.15 850 25.1 14.9 58.7 31 -1.9 28.6
12:50 1021 30.15 850 25.1 15.3 59.5 31 -1.4 29.4
12:55 1021 30.15 850 25.1 16.3 61.3 30 -1.4 29.6
13:00 1021 30.15 850 25.1 16.4 61.4 30 -1.3 29.6
13:05 1021 30.15 850 25.1 16.3 61.3 32 -0.4 31.3
13:10 1021 30.15 850 25.1 15.3 59.5 32 -1.1 30
13:15 1021 30.15 850 25.1 14.5 58.1 32 -1.9 28.6
13:20 1021 30.15 850 25.1 15 58.9 33 -1.3 29.7
13:25 1021 30.15 850 25.1 15 59 31 -1.9 28.7
13:30 1021 30.15 850 25.1 15.2 59.4 32 -1.5 29.4
13:35 1021 30.15 850 25.1 15.9 60.6 29 -2 28.4
13:40 1021 30.15 850 25.1 16.1 61 30 -1.6 29.1
13:45 1020 30.12 850 25.1 17 62.5 27 -2.2 28
13:50 1020 30.12 850 25.1 17.2 63 27 -1.6 29
13:55 1020 30.12 850 25.1 16.7 62.1 28 -1.6 29.1
14:00 1020 30.12 850 25.1 17.2 63 27 -1.6 29.1
14:05 1020 30.12 850 25.1 17 62.6 28 -1.4 29.4
14:10 1020 30.12 850 25.1 17.2 63 27 -2.1 28.3
14:15 1020 30.12 850 25.1 18.2 64.7 26 -1.3 29.7
14:20 1020 30.12 849 25.07 17.6 63.6 28 -1 30.2
14:25 1020 30.12 850 25.1 17 62.6 28 -1.5 29.2
14:30 1020 30.12 849 25.07 16.9 62.4 27 -1.9 28.6
14:35 1020 30.12 849 25.07 17.2 62.9 27 -2 28.3
14:40 1020 30.12 849 25.07 17.6 63.6 26 -2.2 28
14:45 1020 30.12 849 25.07 17.6 63.6 26 -1.9 28.6
14:50 1020 30.12 849 25.07 17.2 62.9 27 -1.8 28.8
14:55 1020 30.12 849 25.07 18 64.4 25 -1.9 28.5
15:00 1020 30.12 849 25.07 18.3 64.9 25 -2 28.4
15:05 1020 30.12 849 25.07 18.5 65.3 23 -2.7 27.2
15:10 1020 30.12 849 25.07 18.5 65.3 25 -1.9 28.5
15:15 1020 30.12 849 25.07 18.4 65.1 25 -2 28.5
15:20 1020 30.12 849 25.07 18.2 64.8 25 -1.8 28.8
15:25 1020 30.12 849 25.07 18.3 64.9 23 -2.9 26.8
15:30 1020 30.12 849 25.07 19 66.1 24 -1.8 28.8
15:35 1020 30.12 849 25.07 18.3 64.9 24 -2.4 27.7
15:40 1020 30.12 849 25.07 18 64.5 24 -2.4 27.6
15:45 1020 30.12 849 25.07 17 62.7 26 -2.5 27.6
15:50 1020 30.12 849 25.07 18.1 64.6 23 -3.5 25.6
15:55 1020 30.12 849 25.07 18.1 64.6 24 -2.9 26.9
16:00 1020 30.12 849 25.07 17.6 63.6 24 -3.1 26.4
16:05 1020 30.12 849 25.07 17.5 63.5 25 -2.6 27.3
16:10 1020 30.12 849 25.07 18.1 64.6 23 -3.3 26.1
16:15 1020 30.12 849 25.07 18.8 65.8 23 -2.7 27.1
16:20 1020 30.12 849 25.07 19.1 66.4 20 -3.9 24.9
16:25 1020 30.12 849 25.07 19.5 67.2 21 -3.2 26.2
16:30 1020 30.12 849 25.07 19.5 67 20 -3.7 25.4
16:35 1020 30.12 849 25.07 19.6 67.2 20 -3.6 25.5
16:40 1020 30.12 849 25.07 19.6 67.3 20 -4.1 24.6
16:45 1020 30.12 849 25.07 19.7 67.4 20 -3.7 25.4
16:50 1020 30.12 849 25.07 19.2 66.6 19 -4.6 23.8
16:55 1020 30.12 849 25.07 19.3 66.7 20 -4.2 24.4
17:00 1020 30.12 849 25.07 19.6 67.2 20 -4.1 24.6
17:05 1020 30.12 849 25.07 19 66.3 20 -4.3 24.2
17:10 1020 30.12 849 25.07 19.2 66.5 19 -4.8 23.3
17:15 1020 30.12 849 25.07 19.2 66.6 20 -4.5 24
17:20 1020 30.12 849 25.07 19.2 66.5 19 -4.8 23.4
17:25 1020 30.12 849 25.07 19.5 67.2 19 -4.4 24.2
17:30 1020 30.12 849 25.07 19.3 66.8 21 -3.7 25.4
17:35 1020 30.12 849 25.07 18.8 65.8 19 -4.9 23.1
17:40 1020 30.12 849 25.07 19 66.2 20 -4.5 24
17:45 1020 30.12 849 25.07 19 66.2 20 -4.4 24.1
17:50 1020 30.12 849 25.07 19.1 66.3 18 -5.3 22.4
17:55 1020 30.12 849 25.07 18.8 65.8 19 -5.3 22.4
18:00 1020 30.12 849 25.07 18.5 65.3 20 -5 23
18:05 1020 30.12 849 25.07 18.9 66.1 20 -4.6 23.8
18:10 1020 30.12 849 25.07 19 66.2 19 -5.3 22.5
18:15 1020 30.12 849 25.07 19 66.3 18 -5.4 22.2
18:20 1020 30.12 849 25.07 18.6 65.4 18 -5.9 21.3
18:25 1020 30.12 849 25.07 18.2 64.8 19 -5.4 22.2
18:30 1020 30.12 849 25.07 17.7 63.8 19 -6 21.2
18:35 1020 30.12 849 25.07 17.4 63.4 19 -6.2 20.9
18:40 1020 30.12 849 25.07 17.6 63.6 20 -5.8 21.6
18:45 1020 30.12 849 25.07 17.5 63.5 20 -5.9 21.4
18:50 1020 30.12 849 25.07 17.3 63.2 20 -5.7 21.7
18:55 1020 30.12 849 25.07 17.2 62.9 19 -6.2 20.8
19:00 1020 30.12 849 25.07 17.1 62.8 21 -5.5 22.2
19:05 1020 30.12 849 25.07 17.1 62.8 20 -5.7 21.7
19:10 1020 30.12 849 25.07 17 62.6 20 -6.3 20.6
19:15 1020 30.12 849 25.07 16.9 62.3 19 -6.6 20.1
19:20 1020 30.12 849 25.07 16.7 62 21 -5.9 21.3
19:25 1020 30.12 849 25.07 16.5 61.8 21 -5.9 21.4
19:30 1020 30.12 849 25.07 16.4 61.5 21 -5.9 21.4
19:35 1020 30.12 849 25.07 16.3 61.4 21 -5.9 21.4
19:40 1020 30.12 849 25.07 16.2 61.1 22 -5.7 21.7
19:45 1020 30.12 849 25.07 16 60.9 21 -6.4 20.4
19:50 1020 30.12 849 25.07 16.1 60.9 21 -6.1 21
19:55 1020 30.12 849 25.07 15.9 60.6 25 -3.9 24.9
20:00 1020 30.12 849 25.07 15.7 60.2 23 -5.1 22.8
20:05 1020 30.12 849 25.07 15.6 60.2 27 -3 26.6
20:10 1020 30.12 849 25.07 15.2 59.4 35 -0.2 31.6
20:15 1020 30.12 849 25.07 14.8 58.7 37 0.5 32.9
20:20 1020 30.12 849 25.07 14.4 58 39 0.8 33.4
20:25 1020 30.12 849 25.07 13.9 57.1 41 1.1 34
20:30 1020 30.12 850 25.1 13 55.3 43 0.7 33.2
20:35 1020 30.12 850 25.1 12.4 54.3 40 -0.7 30.8
20:40 1020 30.12 850 25.1 12.5 54.5 40 -0.6 31
20:45 1020 30.12 850 25.1 12.4 54.3 41 -0.4 31.3
20:50 1021 30.15 850 25.1 12.2 53.9 45 0.6 33.1
20:55 1021 30.15 850 25.1 11.9 53.3 47 0.8 33.5
21:00 1021 30.15 850 25.1 11.5 52.6 48 0.9 33.6
21:05 1021 30.15 850 25.1 11.1 52 49 0.9 33.6
21:10 1021 30.15 850 25.1 10.8 51.5 50 0.7 33.3
21:15 1021 30.15 850 25.1 10.8 51.4 48 0.4 32.7
21:20 1021 30.15 850 25.1 10.9 51.6 46 -0.2 31.6
21:25 1021 30.15 850 25.1 11.1 51.9 44 -0.7 30.7
21:30 1021 30.15 850 25.1 11.4 52.4 44 -0.4 31.3
21:35 1021 30.15 850 25.1 11.2 52.2 46 -0.1 31.9
21:40 1021 30.15 850 25.1 10.9 51.6 46 -0.2 31.6
21:45 1021 30.15 850 25.1 10.8 51.4 47 0 32
21:50 1021 30.15 850 25.1 10.5 51 49 0.2 32.4
21:55 1021 30.15 850 25.1 10.3 50.5 50 0.3 32.5
22:00 1021 30.15 850 25.1 10.3 50.5 50 0.4 32.8
22:05 1021 30.15 850 25.1 10.3 50.5 49 -0 31.9
22:10 1021 30.15 850 25.1 10.1 50.2 50 0.2 32.4
22:15 1021 30.15 850 25.1 9.9 49.8 52 0.6 33.1
22:20 1021 30.15 850 25.1 9.7 49.5 52 0.4 32.8
22:25 1021 30.15 850 25.1 9.8 49.6 53 0.8 33.4
22:30 1021 30.15 850 25.1 9.7 49.4 54 0.9 33.6
22:35 1021 30.15 850 25.1 9.7 49.4 53 0.7 33.2
22:40 1021 30.15 850 25.1 9.8 49.6 52 0.4 32.7
22:45 1021 30.15 850 25.1 9.9 49.8 53 0.7 33.3
22:50 1021 30.15 850 25.1 9.9 49.8 51 0.2 32.4
22:55 1021 30.15 850 25.1 10 50 52 0.6 33.1
23:00 1021 30.15 851 25.13 9.7 49.5 53 0.6 33.1
23:05 1021 30.15 851 25.13 9.3 48.7 53 0.3 32.5
23:10 1021 30.15 851 25.13 9.1 48.5 52 -0 31.9
23:15 1021 30.15 851 25.13 9.3 48.7 52 -0.1 31.9
23:20 1021 30.15 850 25.1 9.3 48.7 52 0 32.1
23:25 1021 30.15 850 25.1 9 48.2 53 0 32
23:30 1021 30.15 850 25.1 8.8 47.8 53 -0.2 31.7
23:35 1021 30.15 850 25.1 8.8 47.9 52 -0.4 31.3
23:40 1021 30.15 850 25.1 8.9 48.1 53 -0 31.9
23:45 1021 30.15 850 25.1 8.4 47.2 55 -0.1 31.8
23:50 1021 30.15 850 25.1 8.3 47 54 -0.3 31.5
23:55 1021 30.15 850 25.1 8.2 46.7 55 -0.3 31.5
24:00 1021 30.15 850 25.1 8.3 47 55 -0.3 31.5